Time;durP1;ratioP1;P1;durP2;ratioP2;P2;SDS_P1;SDS_P2;PMS_P1;PMS_P2;Temp;Humidity;BMP_temperature;BMP_pressure;BME280_temperature;BME280_humidity;BME280_pressure;Samples;Min_cycle;Max_cycle;Signal;HPM_P1;HPM_P2
2024/03/11 00:01:06;;;;;;;0.65;0.20;;;;;;;;;;5093850;28;20020;-78
2024/03/11 00:03:33;;;;;;;0.10;0.10;;;;;;;;;;5088920;28;20016;-76
2024/03/11 00:06:01;;;;;;;0.20;0.10;;;;;;;;;;5097244;28;20413;-77
2024/03/11 00:08:27;;;;;;;1.08;0.10;;;;;;;;;;5111310;28;20027;-77
2024/03/11 00:10:59;;;;;;;0.10;0.10;;;;;;;;;;5110613;28;20020;-77
2024/03/11 00:13:32;;;;;;;;;;;;;;;;;;5112931;28;20099;-78
2024/03/11 00:15:59;;;;;;;0.10;0.10;;;;;;;;;;5114133;28;19914;-78
2024/03/11 00:18:25;;;;;;;0.13;0.10;;;;;;;;;;5113375;28;20464;-78
2024/03/11 00:20:51;;;;;;;0.10;0.10;;;;;;;;;;5103877;28;20099;-79
2024/03/11 00:23:20;;;;;;;0.80;0.10;;;;;;;;;;5095310;28;20060;-79
2024/03/11 00:25:46;;;;;;;1.15;0.20;;;;;;;;;;5094089;28;20032;-78
2024/03/11 00:28:12;;;;;;;0.20;0.17;;;;;;;;;;5109311;28;20052;-78
2024/03/11 00:30:39;;;;;;;0.22;0.20;;;;;;;;;;5099334;28;20492;-77
2024/03/11 00:33:09;;;;;;;0.40;0.30;;;;;;;;;;5092789;28;20084;-78
2024/03/11 00:35:35;;;;;;;0.73;0.10;;;;;;;;;;5103793;28;20113;-77
2024/03/11 00:38:02;;;;;;;0.25;0.10;;;;;;;;;;5108083;28;20457;-78
2024/03/11 00:40:29;;;;;;;0.10;0.00;;;;;;;;;;5091901;28;20032;-76
2024/03/11 00:42:55;;;;;;;0.10;0.10;;;;;;;;;;5106179;28;20070;-77
2024/03/11 00:45:25;;;;;;;0.00;0.00;;;;;;;;;;5104055;28;20106;-78
2024/03/11 00:47:52;;;;;;;0.40;0.13;;;;;;;;;;5095787;28;20036;-78
2024/03/11 00:50:19;;;;;;;0.20;0.20;;;;;;;;;;5102948;28;20035;-77
2024/03/11 00:52:46;;;;;;;0.05;0.03;;;;;;;;;;5105992;28;20094;-78
2024/03/11 00:55:12;;;;;;;0.10;0.08;;;;;;;;;;5105175;28;20020;-78
2024/03/11 00:57:39;;;;;;;0.10;0.10;;;;;;;;;;5101845;28;20054;-76
2024/03/11 01:00:08;;;;;;;0.32;0.20;;;;;;;;;;5105060;28;20107;-77
2024/03/11 01:02:35;;;;;;;0.05;0.05;;;;;;;;;;5105380;28;20024;-76
2024/03/11 01:05:01;;;;;;;0.45;0.10;;;;;;;;;;5103899;28;20085;-78
2024/03/11 01:07:27;;;;;;;0.15;0.13;;;;;;;;;;5085257;28;20032;-77
2024/03/11 01:09:54;;;;;;;0.00;0.00;;;;;;;;;;5092511;28;20016;-78
2024/03/11 01:12:25;;;;;;;0.00;0.00;;;;;;;;;;5092494;28;20024;-78
2024/03/11 01:14:51;;;;;;;0.13;0.08;;;;;;;;;;5092530;28;20279;-78
2024/03/11 01:17:18;;;;;;;0.10;0.10;;;;;;;;;;5092075;28;20065;-78
2024/03/11 01:19:44;;;;;;;0.30;0.10;;;;;;;;;;5094069;28;20020;-78
2024/03/11 01:22:15;;;;;;;0.05;0.05;;;;;;;;;;5096585;28;20026;-79
2024/03/11 01:24:42;;;;;;;0.00;0.00;;;;;;;;;;5096779;28;20054;-78
2024/03/11 01:27:14;;;;;;;0.00;0.00;;;;;;;;;;5080821;28;20032;-77
2024/03/11 01:29:41;;;;;;;0.10;0.00;;;;;;;;;;5104775;28;20024;-77
2024/03/11 01:32:13;;;;;;;0.10;0.10;;;;;;;;;;5088499;28;20078;-77
2024/03/11 01:34:39;;;;;;;;;;;;;;;;;;5095012;28;20027;-77
2024/03/11 01:37:06;;;;;;;0.00;0.00;;;;;;;;;;5116386;28;19952;-76
2024/03/11 01:39:44;;;;;;;0.00;0.00;;;;;;;;;;5103988;28;20024;-77
2024/03/11 01:42:14;;;;;;;0.00;0.00;;;;;;;;;;5119141;28;20040;-80
2024/03/11 01:44:45;;;;;;;0.00;0.00;;;;;;;;;;5117423;28;20020;-78
2024/03/11 01:47:15;;;;;;;0.20;0.15;;;;;;;;;;5105430;28;20096;-78
2024/03/11 01:49:42;;;;;;;0.10;0.05;;;;;;;;;;5116847;28;20028;-78
2024/03/11 01:52:10;;;;;;;0.10;0.10;;;;;;;;;;5118453;28;20044;-79
2024/03/11 01:54:38;;;;;;;0.10;0.10;;;;;;;;;;5098990;28;20452;-77
2024/03/11 01:57:08;;;;;;;0.00;0.00;;;;;;;;;;5096085;28;20085;-77
2024/03/11 01:59:37;;;;;;;0.00;0.00;;;;;;;;;;5093780;28;20027;-78
2024/03/11 02:02:07;;;;;;;0.30;0.10;;;;;;;;;;5095884;28;20540;-76
2024/03/11 02:04:43;;;;;;;0.08;0.05;;;;;;;;;;5095146;28;20028;-78
2024/03/11 02:07:13;;;;;;;0.10;0.10;;;;;;;;;;5094862;28;20028;-78
2024/03/11 02:09:40;;;;;;;0.10;0.10;;;;;;;;;;5094360;28;20047;-78
2024/03/11 02:12:06;;;;;;;0.08;0.08;;;;;;;;;;5083198;28;20016;-77
2024/03/11 02:14:33;;;;;;;0.10;0.10;;;;;;;;;;5082039;28;20020;-78
2024/03/11 02:16:59;;;;;;;0.00;0.00;;;;;;;;;;5108527;28;20055;-78
2024/03/11 02:19:26;;;;;;;0.20;0.20;;;;;;;;;;5108539;28;20016;-78
2024/03/11 02:21:52;;;;;;;0.20;0.10;;;;;;;;;;5108788;28;20024;-79
2024/03/11 02:24:19;;;;;;;0.08;0.08;;;;;;;;;;5107057;28;20028;-78
2024/03/11 02:26:48;;;;;;;0.40;0.20;;;;;;;;;;5116944;28;20080;-80
2024/03/11 02:29:16;;;;;;;0.10;0.10;;;;;;;;;;5116461;28;20028;-78
2024/03/11 02:31:45;;;;;;;0.10;0.10;;;;;;;;;;5101771;28;20024;-78
2024/03/11 02:34:12;;;;;;;0.10;0.10;;;;;;;;;;5089179;28;20028;-78
2024/03/11 02:36:40;;;;;;;0.20;0.20;;;;;;;;;;5094590;28;20130;-78
2024/03/11 02:39:07;;;;;;;0.55;0.10;;;;;;;;;;5095619;28;20065;-77
2024/03/11 02:41:35;;;;;;;0.30;0.10;;;;;;;;;;5084748;28;20493;-77
2024/03/11 02:44:01;;;;;;;0.10;0.10;;;;;;;;;;5094437;28;20404;-78
2024/03/11 02:46:27;;;;;;;0.15;0.10;;;;;;;;;;5093996;28;20022;-78
2024/03/11 02:48:53;;;;;;;0.10;0.10;;;;;;;;;;5094726;28;20115;-79
2024/03/11 02:51:19;;;;;;;0.38;0.20;;;;;;;;;;5093495;28;20378;-78
2024/03/11 02:53:46;;;;;;;0.38;0.28;;;;;;;;;;5093953;28;20381;-78
2024/03/11 02:56:13;;;;;;;0.38;0.20;;;;;;;;;;5094624;28;20024;-78
2024/03/11 02:58:39;;;;;;;0.10;0.10;;;;;;;;;;5093331;28;20381;-77
2024/03/11 03:01:06;;;;;;;0.20;0.15;;;;;;;;;;5093085;28;20474;-77
2024/03/11 03:03:32;;;;;;;0.10;0.10;;;;;;;;;;5093704;28;20035;-77
2024/03/11 03:05:59;;;;;;;0.68;0.15;;;;;;;;;;5093530;28;20034;-77
2024/03/11 03:08:26;;;;;;;0.00;0.00;;;;;;;;;;5092775;28;20427;-77
2024/03/11 03:10:52;;;;;;;0.10;0.10;;;;;;;;;;5092291;28;20035;-78
2024/03/11 03:13:18;;;;;;;0.10;0.00;;;;;;;;;;5092852;28;20024;-78
2024/03/11 03:15:44;;;;;;;0.10;0.10;;;;;;;;;;5093824;28;20020;-78
2024/03/11 03:18:10;;;;;;;0.20;0.10;;;;;;;;;;5092950;28;20028;-78
2024/03/11 03:20:38;;;;;;;0.00;0.00;;;;;;;;;;5091993;28;20050;-77
2024/03/11 03:23:06;;;;;;;0.10;0.00;;;;;;;;;;5092986;28;20031;-78
2024/03/11 03:25:33;;;;;;;0.10;0.10;;;;;;;;;;5093032;28;20090;-77
2024/03/11 03:28:05;;;;;;;0.10;0.10;;;;;;;;;;5092535;28;20069;-78
2024/03/11 03:30:32;;;;;;;0.10;0.03;;;;;;;;;;5091973;28;20024;-77
2024/03/11 03:32:59;;;;;;;0.15;0.00;;;;;;;;;;5093279;28;20020;-78
2024/03/11 03:35:25;;;;;;;0.10;0.00;;;;;;;;;;5092744;28;20020;-78
2024/03/11 03:37:55;;;;;;;0.30;0.13;;;;;;;;;;5092229;28;20020;-77
2024/03/11 03:40:22;;;;;;;0.22;0.10;;;;;;;;;;5089414;28;20020;-78
2024/03/11 03:42:49;;;;;;;0.22;0.00;;;;;;;;;;5092492;28;20447;-78
2024/03/11 03:45:16;;;;;;;0.00;0.00;;;;;;;;;;5093059;28;20093;-77
2024/03/11 03:47:42;;;;;;;0.10;0.10;;;;;;;;;;5092437;28;20035;-77
2024/03/11 03:50:12;;;;;;;0.00;0.00;;;;;;;;;;5092036;28;20044;-78
2024/03/11 03:52:38;;;;;;;0.20;0.10;;;;;;;;;;5092491;28;20016;-78
2024/03/11 03:55:05;;;;;;;0.00;0.00;;;;;;;;;;5093154;28;20035;-78
2024/03/11 03:57:33;;;;;;;0.00;0.00;;;;;;;;;;5092901;28;20027;-77
2024/03/11 03:59:59;;;;;;;0.10;0.10;;;;;;;;;;5092590;28;20012;-76
2024/03/11 04:02:25;;;;;;;0.68;0.20;;;;;;;;;;5093550;28;20052;-79
2024/03/11 04:04:51;;;;;;;0.30;0.30;;;;;;;;;;5092685;28;20027;-76
2024/03/11 04:07:18;;;;;;;0.30;0.30;;;;;;;;;;5092938;28;20024;-77
2024/03/11 04:09:44;;;;;;;0.20;0.20;;;;;;;;;;5083766;28;20024;-78
2024/03/11 04:12:11;;;;;;;0.52;0.25;;;;;;;;;;5092439;28;20020;-77
2024/03/11 04:14:38;;;;;;;0.25;0.20;;;;;;;;;;5092452;28;20046;-77
2024/03/11 04:17:06;;;;;;;0.10;0.10;;;;;;;;;;5082590;28;20026;-77
2024/03/11 04:19:32;;;;;;;0.55;0.20;;;;;;;;;;5091537;28;20048;-78
2024/03/11 04:21:59;;;;;;;0.13;0.13;;;;;;;;;;5093418;28;20028;-78
2024/03/11 04:24:25;;;;;;;0.30;0.10;;;;;;;;;;5092505;28;20124;-77
2024/03/11 04:26:52;;;;;;;0.05;0.05;;;;;;;;;;5093118;28;20043;-78
2024/03/11 04:29:19;;;;;;;0.10;0.10;;;;;;;;;;5086803;28;20032;-77
2024/03/11 04:31:45;;;;;;;0.20;0.10;;;;;;;;;;5108514;28;20000;-78
2024/03/11 04:34:11;;;;;;;0.10;0.10;;;;;;;;;;5102453;28;20020;-79
2024/03/11 04:36:41;;;;;;;0.15;0.15;;;;;;;;;;5115032;28;20080;-77
2024/03/11 04:39:07;;;;;;;0.10;0.10;;;;;;;;;;5108200;28;20043;-77
2024/03/11 04:41:35;;;;;;;0.10;0.00;;;;;;;;;;5107922;28;20085;-77
2024/03/11 04:44:01;;;;;;;0.20;0.20;;;;;;;;;;5092965;28;20024;-77
2024/03/11 04:46:28;;;;;;;0.10;0.10;;;;;;;;;;5093075;28;20081;-78
2024/03/11 04:48:54;;;;;;;0.20;0.20;;;;;;;;;;5093092;28;20020;-78
2024/03/11 04:51:20;;;;;;;0.28;0.10;;;;;;;;;;5092353;28;20039;-79
2024/03/11 04:53:48;;;;;;;0.10;0.10;;;;;;;;;;5093107;28;20042;-78
2024/03/11 04:56:15;;;;;;;0.20;0.10;;;;;;;;;;5097334;28;20016;-78
2024/03/11 04:58:41;;;;;;;0.00;0.00;;;;;;;;;;5097504;28;20016;-77
2024/03/11 05:01:08;;;;;;;0.10;0.10;;;;;;;;;;5097789;28;20490;-76
2024/03/11 05:03:34;;;;;;;0.32;0.20;;;;;;;;;;5098686;28;20085;-77
2024/03/11 05:06:00;;;;;;;0.10;0.10;;;;;;;;;;5082418;28;20087;-77
2024/03/11 05:08:27;;;;;;;0.10;0.10;;;;;;;;;;5082603;28;20418;-77
2024/03/11 05:10:53;;;;;;;0.10;0.10;;;;;;;;;;5098333;28;20367;-78
2024/03/11 05:13:19;;;;;;;0.82;0.22;;;;;;;;;;5096761;28;20022;-78
2024/03/11 05:15:49;;;;;;;0.20;0.20;;;;;;;;;;5086726;28;20027;-76
2024/03/11 05:18:15;;;;;;;0.10;0.10;;;;;;;;;;5096238;28;20073;-78
2024/03/11 05:20:44;;;;;;;0.13;0.13;;;;;;;;;;5099339;28;20055;-77
2024/03/11 05:23:10;;;;;;;0.10;0.00;;;;;;;;;;5081707;28;20051;-78
2024/03/11 05:25:37;;;;;;;0.22;0.22;;;;;;;;;;5078769;28;20386;-78
2024/03/11 05:28:03;;;;;;;0.17;0.10;;;;;;;;;;5096423;28;20066;-78
2024/03/11 05:30:29;;;;;;;0.10;0.10;;;;;;;;;;5080606;28;20023;-78
2024/03/11 05:32:56;;;;;;;0.10;0.10;;;;;;;;;;5097757;28;20024;-79
2024/03/11 05:35:22;;;;;;;0.10;0.10;;;;;;;;;;5115466;28;20012;-78
2024/03/11 05:37:48;;;;;;;0.30;0.10;;;;;;;;;;5104971;28;20040;-78
2024/03/11 05:40:15;;;;;;;0.30;0.30;;;;;;;;;;5121657;22;20028;-84
2024/03/11 05:42:48;;;;;;;0.10;0.10;;;;;;;;;;5079206;28;20024;-84
2024/03/11 05:45:14;;;;;;;0.20;0.20;;;;;;;;;;5079688;28;20086;-86
2024/03/11 05:47:45;;;;;;;0.20;0.20;;;;;;;;;;5055898;28;20032;-87
2024/03/11 05:50:16;;;;;;;0.10;0.03;;;;;;;;;;5048098;28;20082;-85
2024/03/11 05:52:44;;;;;;;0.32;0.28;;;;;;;;;;5061045;28;20116;-86
2024/03/11 05:55:11;;;;;;;0.20;0.05;;;;;;;;;;5050807;28;20025;-86
2024/03/11 05:57:39;;;;;;;0.20;0.20;;;;;;;;;;5062438;28;20107;-86
2024/03/11 06:00:09;;;;;;;0.63;0.20;;;;;;;;;;5049210;28;20532;-86
2024/03/11 06:02:44;;;;;;;0.10;0.10;;;;;;;;;;5055359;28;20028;-86
2024/03/11 06:05:10;;;;;;;0.10;0.10;;;;;;;;;;5057671;28;20086;-87
2024/03/11 06:07:36;;;;;;;0.28;0.10;;;;;;;;;;5056399;28;20017;-85
2024/03/11 06:10:03;;;;;;;0.13;0.10;;;;;;;;;;5065287;28;20043;-78
2024/03/11 06:12:29;;;;;;;0.52;0.10;;;;;;;;;;5062203;28;20391;-79
2024/03/11 06:14:56;;;;;;;0.20;0.20;;;;;;;;;;5049108;28;20058;-79
2024/03/11 06:17:22;;;;;;;0.28;0.20;;;;;;;;;;5063642;28;20371;-79
2024/03/11 06:19:48;;;;;;;0.10;0.10;;;;;;;;;;5070682;28;20063;-79
2024/03/11 06:22:16;;;;;;;0.30;0.20;;;;;;;;;;5064026;28;20027;-79
2024/03/11 06:24:43;;;;;;;0.45;0.28;;;;;;;;;;5058508;28;20032;-79
2024/03/11 06:27:09;;;;;;;0.10;0.10;;;;;;;;;;5067317;28;20031;-79
2024/03/11 06:29:35;;;;;;;0.47;0.28;;;;;;;;;;5068052;28;20044;-77
2024/03/11 06:32:05;;;;;;;0.10;0.10;;;;;;;;;;5080707;28;20024;-77
2024/03/11 06:34:32;;;;;;;0.40;0.20;;;;;;;;;;5080684;28;20256;-79
2024/03/11 06:36:58;;;;;;;0.20;0.17;;;;;;;;;;5063197;28;20024;-78
2024/03/11 06:39:24;;;;;;;0.10;0.10;;;;;;;;;;5044287;28;20028;-78
2024/03/11 06:41:51;;;;;;;0.17;0.13;;;;;;;;;;5054523;28;20025;-80
2024/03/11 06:44:17;;;;;;;0.30;0.28;;;;;;;;;;5059756;28;20028;-78
2024/03/11 06:46:44;;;;;;;0.10;0.10;;;;;;;;;;5060170;28;20107;-79
2024/03/11 06:49:11;;;;;;;0.10;0.10;;;;;;;;;;5068880;28;20083;-79
2024/03/11 06:51:37;;;;;;;0.38;0.38;;;;;;;;;;5062648;28;20037;-79
2024/03/11 06:54:04;;;;;;;0.50;0.20;;;;;;;;;;5080814;28;20016;-78
2024/03/11 06:56:32;;;;;;;0.28;0.17;;;;;;;;;;5070050;28;20031;-79
2024/03/11 06:58:58;;;;;;;0.20;0.20;;;;;;;;;;5041827;28;20028;-77
2024/03/11 07:01:27;;;;;;;0.22;0.22;;;;;;;;;;5069548;28;20026;-79
2024/03/11 07:03:55;;;;;;;0.20;0.20;;;;;;;;;;5061248;28;20024;-78
2024/03/11 07:06:22;;;;;;;0.20;0.20;;;;;;;;;;5050150;28;20025;-77
2024/03/11 07:08:50;;;;;;;0.70;0.40;;;;;;;;;;5060285;28;20025;-79
2024/03/11 07:11:16;;;;;;;0.20;0.20;;;;;;;;;;5039017;28;20063;-79
2024/03/11 07:13:42;;;;;;;0.30;0.30;;;;;;;;;;5043939;28;20036;-79
2024/03/11 07:16:11;;;;;;;0.25;0.25;;;;;;;;;;5052485;28;20025;-79
2024/03/11 07:18:38;;;;;;;0.63;0.32;;;;;;;;;;5062221;28;20017;-79
2024/03/11 07:21:06;;;;;;;1.02;0.35;;;;;;;;;;5061143;28;20504;-80
2024/03/11 07:23:33;;;;;;;0.32;0.30;;;;;;;;;;5061022;28;20071;-79
2024/03/11 07:25:59;;;;;;;0.17;0.17;;;;;;;;;;5047081;28;20044;-79
2024/03/11 07:28:26;;;;;;;0.38;0.28;;;;;;;;;;5064316;28;20021;-80
2024/03/11 07:30:53;;;;;;;0.60;0.40;;;;;;;;;;5065246;28;20025;-78
2024/03/11 07:33:20;;;;;;;0.30;0.30;;;;;;;;;;5059129;28;20031;-77
2024/03/11 07:35:48;;;;;;;0.68;0.32;;;;;;;;;;5057138;28;20012;-78
2024/03/11 07:38:14;;;;;;;0.45;0.30;;;;;;;;;;5058011;28;20025;-79
2024/03/11 07:40:40;;;;;;;0.60;0.50;;;;;;;;;;5056148;28;20104;-78
2024/03/11 07:43:07;;;;;;;0.32;0.32;;;;;;;;;;5066787;28;20031;-78
2024/03/11 07:45:37;;;;;;;0.35;0.35;;;;;;;;;;5067195;28;20090;-78
2024/03/11 07:48:04;;;;;;;0.40;0.40;;;;;;;;;;5064758;28;20037;-77
2024/03/11 07:50:30;;;;;;;0.50;0.50;;;;;;;;;;5073454;28;20100;-78
2024/03/11 07:52:57;;;;;;;0.68;0.50;;;;;;;;;;5066975;28;20040;-78
2024/03/11 07:55:24;;;;;;;0.45;0.45;;;;;;;;;;5051035;28;20093;-78
2024/03/11 07:57:53;;;;;;;1.75;0.50;;;;;;;;;;5052029;28;20031;-79
2024/03/11 08:00:20;;;;;;;0.63;0.63;;;;;;;;;;5052718;28;20029;-77
2024/03/11 08:02:47;;;;;;;0.80;0.50;;;;;;;;;;5036143;28;20108;-79
2024/03/11 08:05:13;;;;;;;0.50;0.40;;;;;;;;;;5056514;28;20037;-81
2024/03/11 08:07:43;;;;;;;0.55;0.50;;;;;;;;;;5061359;28;20044;-78
2024/03/11 08:10:09;;;;;;;0.40;0.30;;;;;;;;;;5042149;28;20052;-80
2024/03/11 08:12:45;;;;;;;0.80;0.40;;;;;;;;;;5052944;28;20038;-79
2024/03/11 08:15:14;;;;;;;0.43;0.20;;;;;;;;;;5078832;28;20049;-78
2024/03/11 08:17:50;;;;;;;0.65;0.38;;;;;;;;;;5075238;28;20024;-78
2024/03/11 08:20:17;;;;;;;1.00;0.40;;;;;;;;;;5059337;28;20021;-79
2024/03/11 08:22:47;;;;;;;0.73;0.32;;;;;;;;;;5062919;28;20033;-81
2024/03/11 08:25:17;;;;;;;0.40;0.30;;;;;;;;;;5075311;28;20336;-80
2024/03/11 08:27:43;;;;;;;0.22;0.22;;;;;;;;;;5057977;28;20032;-79
2024/03/11 08:30:10;;;;;;;0.85;0.57;;;;;;;;;;5057578;28;20025;-80
2024/03/11 08:32:36;;;;;;;0.47;0.32;;;;;;;;;;5065126;28;20041;-77
2024/03/11 08:35:03;;;;;;;0.85;0.38;;;;;;;;;;5072536;28;20036;-78
2024/03/11 08:37:29;;;;;;;0.63;0.32;;;;;;;;;;5065497;28;20026;-79
2024/03/11 08:39:56;;;;;;;0.35;0.35;;;;;;;;;;5066146;28;20059;-80
2024/03/11 08:42:23;;;;;;;0.20;0.20;;;;;;;;;;5052961;28;20039;-80
2024/03/11 08:44:53;;;;;;;0.30;0.30;;;;;;;;;;5075562;28;20029;-80
2024/03/11 08:47:20;;;;;;;0.30;0.30;;;;;;;;;;5062147;28;20085;-78
2024/03/11 08:49:46;;;;;;;0.30;0.30;;;;;;;;;;5044389;28;20029;-80
2024/03/11 08:52:13;;;;;;;0.40;0.20;;;;;;;;;;5064651;28;20391;-79
2024/03/11 08:54:40;;;;;;;0.10;0.10;;;;;;;;;;5075870;28;20453;-80
2024/03/11 08:57:09;;;;;;;0.15;0.10;;;;;;;;;;5072330;28;20032;-79
2024/03/11 08:59:36;;;;;;;0.22;0.20;;;;;;;;;;5054259;28;20029;-81
2024/03/11 09:02:03;;;;;;;0.50;0.30;;;;;;;;;;5052714;28;20033;-78
2024/03/11 09:04:29;;;;;;;0.10;0.10;;;;;;;;;;5062959;28;20100;-78
2024/03/11 09:06:58;;;;;;;0.20;0.20;;;;;;;;;;5066760;28;20039;-78
2024/03/11 09:09:25;;;;;;;0.10;0.10;;;;;;;;;;5072201;28;20005;-77
2024/03/11 09:11:56;;;;;;;0.13;0.13;;;;;;;;;;5066692;28;20029;-79
2024/03/11 09:14:27;;;;;;;0.20;0.10;;;;;;;;;;5055699;28;20029;-79
2024/03/11 09:17:00;;;;;;;0.20;0.20;;;;;;;;;;5052431;28;20059;-81
2024/03/11 09:19:26;;;;;;;0.85;0.28;;;;;;;;;;5058621;28;20063;-80
2024/03/11 09:21:53;;;;;;;0.20;0.20;;;;;;;;;;5056485;28;20020;-79
2024/03/11 09:24:20;;;;;;;0.13;0.10;;;;;;;;;;5075537;28;20020;-80
2024/03/11 09:26:49;;;;;;;0.32;0.30;;;;;;;;;;5056390;28;20102;-79
2024/03/11 09:29:16;;;;;;;0.30;0.20;;;;;;;;;;5051631;28;20132;-81
2024/03/11 09:31:46;;;;;;;0.88;0.30;;;;;;;;;;5051457;28;20028;-80
2024/03/11 09:34:12;;;;;;;0.70;0.35;;;;;;;;;;5061641;28;20024;-79
2024/03/11 09:36:39;;;;;;;0.32;0.30;;;;;;;;;;5047401;28;20029;-81
2024/03/11 09:39:06;;;;;;;0.40;0.20;;;;;;;;;;5045086;28;20402;-79
2024/03/11 09:41:40;;;;;;;0.35;0.20;;;;;;;;;;5069626;28;20115;-79
2024/03/11 09:44:13;;;;;;;0.10;0.10;;;;;;;;;;5073485;28;20052;-78
2024/03/11 09:46:40;;;;;;;0.17;0.10;;;;;;;;;;5063521;28;20020;-81
2024/03/11 09:49:07;;;;;;;1.55;0.47;;;;;;;;;;5061213;28;20082;-78
2024/03/11 09:51:33;;;;;;;0.30;0.20;;;;;;;;;;5053688;28;20035;-79
2024/03/11 09:54:00;;;;;;;0.32;0.20;;;;;;;;;;5068687;28;20024;-80
2024/03/11 09:56:27;;;;;;;0.40;0.40;;;;;;;;;;5064357;28;20024;-81
2024/03/11 09:58:57;;;;;;;0.17;0.10;;;;;;;;;;5058310;28;20084;-80
2024/03/11 10:01:33;;;;;;;0.65;0.28;;;;;;;;;;5069875;28;20075;-82
2024/03/11 10:04:00;;;;;;;0.40;0.40;;;;;;;;;;5045277;28;20017;-80
2024/03/11 10:06:30;;;;;;;0.63;0.20;;;;;;;;;;5042135;28;20101;-81
2024/03/11 10:08:57;;;;;;;0.43;0.43;;;;;;;;;;5038813;28;20013;-80
2024/03/11 10:11:28;;;;;;;0.30;0.30;;;;;;;;;;5049152;28;20333;-81
2024/03/11 10:13:58;;;;;;;0.28;0.22;;;;;;;;;;5039797;28;20021;-81
2024/03/11 10:16:26;;;;;;;0.40;0.28;;;;;;;;;;5064471;28;20060;-79
2024/03/11 10:19:11;;;;;;;0.30;0.30;;;;;;;;;;5065974;28;20196;-82
2024/03/11 10:21:38;;;;;;;0.20;0.20;;;;;;;;;;5055382;28;20024;-80
2024/03/11 10:24:05;;;;;;;0.40;0.25;;;;;;;;;;5042391;28;20075;-79
2024/03/11 10:26:40;;;;;;;0.30;0.30;;;;;;;;;;5049208;28;20029;-81
2024/03/11 10:29:07;;;;;;;0.47;0.30;;;;;;;;;;5061057;28;20025;-80
2024/03/11 10:31:33;;;;;;;0.35;0.35;;;;;;;;;;5045381;28;20021;-80
2024/03/11 10:34:10;;;;;;;0.68;0.60;;;;;;;;;;5053256;28;20027;-79
2024/03/11 10:36:39;;;;;;;0.20;0.20;;;;;;;;;;5052764;28;20495;-77
2024/03/11 10:39:17;;;;;;;0.38;0.20;;;;;;;;;;5065701;28;20399;-78
2024/03/11 10:41:43;;;;;;;0.47;0.25;;;;;;;;;;5056608;28;20120;-78
2024/03/11 10:44:15;;;;;;;0.30;0.30;;;;;;;;;;5051183;28;20132;-78
2024/03/11 10:46:41;;;;;;;0.20;0.20;;;;;;;;;;5066166;28;20390;-77
2024/03/11 10:49:13;;;;;;;0.20;0.20;;;;;;;;;;5058527;28;20031;-78
2024/03/11 10:51:39;;;;;;;;;;;;;;;;;;5052580;28;20025;-78
2024/03/11 10:54:05;;;;;;;0.70;0.63;;;;;;;;;;5052277;28;19973;-77
2024/03/11 10:56:32;;;;;;;0.10;0.10;;;;;;;;;;5072232;28;20021;-76
2024/03/11 10:59:03;;;;;;;0.30;0.30;;;;;;;;;;5055178;28;20025;-78
2024/03/11 11:01:30;;;;;;;0.93;0.30;;;;;;;;;;5080841;28;20040;-77
2024/03/11 11:04:01;;;;;;;1.08;0.50;;;;;;;;;;5062626;28;20514;-76
2024/03/11 11:06:28;;;;;;;0.30;0.30;;;;;;;;;;5080623;28;20028;-76
2024/03/11 11:08:55;;;;;;;0.55;0.50;;;;;;;;;;5077975;28;20080;-76
2024/03/11 11:11:22;;;;;;;0.80;0.20;;;;;;;;;;5085080;28;20089;-75
2024/03/11 11:13:55;;;;;;;0.47;0.40;;;;;;;;;;5046137;28;20024;-77
2024/03/11 11:16:25;;;;;;;0.52;0.38;;;;;;;;;;5081019;28;20015;-75
2024/03/11 11:18:53;;;;;;;0.47;0.47;;;;;;;;;;5087978;28;20055;-76
2024/03/11 11:21:22;;;;;;;0.47;0.35;;;;;;;;;;5068278;28;20112;-78
2024/03/11 11:23:51;;;;;;;0.20;0.20;;;;;;;;;;5064530;28;20405;-77
2024/03/11 11:26:37;;;;;;;0.40;0.40;;;;;;;;;;5067620;28;20025;-77
2024/03/11 11:29:04;;;;;;;0.68;0.30;;;;;;;;;;5066894;28;20039;-77
2024/03/11 11:31:32;;;;;;;0.30;0.30;;;;;;;;;;5054634;28;20041;-77
2024/03/11 11:34:04;;;;;;;1.35;0.30;;;;;;;;;;5049296;28;20487;-78
2024/03/11 11:36:31;;;;;;;0.45;0.40;;;;;;;;;;5051528;28;20017;-76
2024/03/11 11:38:58;;;;;;;1.33;0.30;;;;;;;;;;5066204;28;20036;-78
2024/03/11 11:41:39;;;;;;;0.30;0.30;;;;;;;;;;5039880;28;20187;-78
2024/03/11 11:44:07;;;;;;;0.40;0.20;;;;;;;;;;5062441;28;20024;-79
2024/03/11 11:46:46;;;;;;;0.30;0.30;;;;;;;;;;5067569;28;20505;-78
2024/03/11 11:49:23;;;;;;;0.52;0.40;;;;;;;;;;5055451;28;20077;-79
2024/03/11 11:51:54;;;;;;;0.30;0.30;;;;;;;;;;5068253;28;20017;-78
2024/03/11 11:54:28;;;;;;;0.60;0.40;;;;;;;;;;5061439;28;20032;-78
2024/03/11 11:57:17;;;;;;;0.77;0.30;;;;;;;;;;5061792;28;20080;-80
2024/03/11 11:59:47;;;;;;;0.35;0.32;;;;;;;;;;5057684;28;20394;-78
2024/03/11 12:02:20;;;;;;;0.40;0.40;;;;;;;;;;5065146;28;20108;-78
2024/03/11 12:04:50;;;;;;;0.75;0.50;;;;;;;;;;5055573;28;20116;-77
2024/03/11 12:07:23;;;;;;;0.50;0.45;;;;;;;;;;5043281;28;20053;-78
2024/03/11 12:09:54;;;;;;;0.65;0.40;;;;;;;;;;5055747;28;20149;-79
2024/03/11 12:12:43;;;;;;;0.52;0.20;;;;;;;;;;5043729;28;20060;-79
2024/03/11 12:15:16;;;;;;;0.60;0.32;;;;;;;;;;5063787;28;20017;-78
2024/03/11 12:17:53;;;;;;;2.17;0.55;;;;;;;;;;5066171;28;20079;-79
2024/03/11 12:22:49;;;;;;;0.80;0.50;;;;;;;;;;5069715;28;20025;-77
2024/03/11 12:25:15;;;;;;;1.35;0.50;;;;;;;;;;5044024;28;20025;-75
2024/03/11 12:27:44;;;;;;;1.50;0.52;;;;;;;;;;5068043;28;20033;-78
2024/03/11 12:30:19;;;;;;;0.43;0.43;;;;;;;;;;5071770;28;20058;-77
2024/03/11 12:32:58;;;;;;;1.48;0.30;;;;;;;;;;5053931;28;20093;-77
2024/03/11 12:35:27;;;;;;;0.73;0.47;;;;;;;;;;5070321;28;20029;-76
2024/03/11 12:37:54;;;;;;;0.47;0.30;;;;;;;;;;5066418;28;20017;-77
2024/03/11 12:40:20;;;;;;;0.90;0.75;;;;;;;;;;5062883;28;20051;-78
2024/03/11 12:42:52;;;;;;;1.27;0.45;;;;;;;;;;5045790;28;20472;-76
2024/03/11 12:45:18;;;;;;;0.30;0.30;;;;;;;;;;5052300;28;20020;-77
2024/03/11 12:47:44;;;;;;;0.30;0.30;;;;;;;;;;5050278;28;20380;-78
2024/03/11 12:50:13;;;;;;;1.13;0.30;;;;;;;;;;5059013;28;20120;-77
2024/03/11 12:52:40;;;;;;;0.50;0.30;;;;;;;;;;5076111;28;20053;-77
2024/03/11 12:55:19;;;;;;;0.68;0.43;;;;;;;;;;5039477;28;20401;-77
2024/03/11 12:57:45;;;;;;;0.28;0.28;;;;;;;;;;5065166;28;20091;-76
2024/03/11 13:00:14;;;;;;;0.20;0.20;;;;;;;;;;5039415;28;20066;-77
2024/03/11 13:02:40;;;;;;;0.47;0.35;;;;;;;;;;5041502;28;20025;-76
2024/03/11 13:05:11;;;;;;;0.20;0.20;;;;;;;;;;5062952;28;20095;-76
2024/03/11 13:07:38;;;;;;;0.30;0.30;;;;;;;;;;5062747;28;20111;-77
2024/03/11 13:10:06;;;;;;;0.30;0.30;;;;;;;;;;5056050;28;20052;-76
2024/03/11 13:12:33;;;;;;;0.30;0.30;;;;;;;;;;5034396;28;20061;-76
2024/03/11 13:14:59;;;;;;;0.43;0.43;;;;;;;;;;5044415;28;20017;-77
2024/03/11 13:17:32;;;;;;;1.85;0.50;;;;;;;;;;5065964;28;20078;-76
2024/03/11 13:20:00;;;;;;;0.40;0.40;;;;;;;;;;5061778;28;20024;-77
2024/03/11 13:22:30;;;;;;;1.17;0.40;;;;;;;;;;5069988;28;20109;-77
2024/03/11 13:25:05;;;;;;;0.95;0.32;;;;;;;;;;5063542;28;20025;-75
2024/03/11 13:27:34;;;;;;;0.32;0.30;;;;;;;;;;5083882;28;20044;-77
2024/03/11 13:30:01;;;;;;;0.80;0.80;;;;;;;;;;5058047;28;20102;-76
2024/03/11 13:32:28;;;;;;;0.35;0.30;;;;;;;;;;5067782;28;20025;-77
2024/03/11 13:34:54;;;;;;;1.00;0.80;;;;;;;;;;5038098;28;20051;-77
2024/03/11 13:37:20;;;;;;;0.88;0.40;;;;;;;;;;5066165;28;20024;-78
2024/03/11 13:39:47;;;;;;;0.65;0.40;;;;;;;;;;5050300;28;20475;-77
2024/03/11 13:42:14;;;;;;;0.15;0.15;;;;;;;;;;5058797;28;20044;-77
2024/03/11 13:44:40;;;;;;;1.58;0.65;;;;;;;;;;5065470;28;20104;-77
2024/03/11 13:47:08;;;;;;;1.20;0.28;;;;;;;;;;5073758;28;20107;-77
2024/03/11 13:49:34;;;;;;;0.30;0.28;;;;;;;;;;5069631;28;20472;-76
2024/03/11 13:52:01;;;;;;;2.90;0.20;;;;;;;;;;5057266;28;20084;-80
2024/03/11 13:54:28;;;;;;;0.52;0.20;;;;;;;;;;5052741;28;20032;-78
2024/03/11 13:56:59;;;;;;;0.82;0.20;;;;;;;;;;5059868;28;20032;-77
2024/03/11 13:59:25;;;;;;;0.65;0.30;;;;;;;;;;5056209;28;20025;-76
2024/03/11 14:01:55;;;;;;;0.95;0.30;;;;;;;;;;5068024;28;20092;-78
2024/03/11 14:04:21;;;;;;;0.10;0.10;;;;;;;;;;5057173;28;20017;-77
2024/03/11 14:06:48;;;;;;;0.57;0.30;;;;;;;;;;5061312;28;20046;-78
2024/03/11 14:09:19;;;;;;;0.60;0.22;;;;;;;;;;5040775;28;20022;-76
2024/03/11 14:11:46;;;;;;;0.88;0.52;;;;;;;;;;5063691;28;20036;-77
2024/03/11 14:14:13;;;;;;;0.77;0.38;;;;;;;;;;5065472;28;20025;-77
2024/03/11 14:16:46;;;;;;;1.30;0.50;;;;;;;;;;5068016;28;20021;-77
2024/03/11 14:19:17;;;;;;;0.73;0.40;;;;;;;;;;5052364;28;20437;-79
2024/03/11 14:21:44;;;;;;;0.40;0.40;;;;;;;;;;5042753;28;20102;-78
2024/03/11 14:24:10;;;;;;;0.65;0.50;;;;;;;;;;5067852;28;20024;-77
2024/03/11 14:26:38;;;;;;;0.65;0.60;;;;;;;;;;5058310;28;20044;-77
2024/03/11 14:29:07;;;;;;;0.25;0.25;;;;;;;;;;5068160;28;20377;-76
2024/03/11 14:31:34;;;;;;;0.30;0.30;;;;;;;;;;5058700;28;20036;-76
2024/03/11 14:34:04;;;;;;;0.25;0.25;;;;;;;;;;5051947;28;20111;-77
2024/03/11 14:36:33;;;;;;;0.50;0.30;;;;;;;;;;5079186;28;20020;-77
2024/03/11 14:39:00;;;;;;;0.17;0.17;;;;;;;;;;5058514;28;20025;-78
2024/03/11 14:41:30;;;;;;;0.50;0.25;;;;;;;;;;5059617;28;20392;-77
2024/03/11 14:43:56;;;;;;;0.20;0.10;;;;;;;;;;5063293;28;20028;-77
2024/03/11 14:46:22;;;;;;;0.30;0.30;;;;;;;;;;5065284;28;20124;-76
2024/03/11 14:48:49;;;;;;;0.20;0.20;;;;;;;;;;5072392;28;20059;-76
2024/03/11 14:51:16;;;;;;;0.10;0.10;;;;;;;;;;5068924;28;20063;-77